createdAt,value
2022-11-12T00:16:16.961Z,72.89
2022-11-12T00:18:43.475Z,72.08
2022-11-12T00:21:10.018Z,71.99
2022-11-12T00:23:36.606Z,73.72
2022-11-12T00:26:03.199Z,72.71
2022-11-12T00:28:34.730Z,72.16
2022-11-12T00:31:09.340Z,71.96
2022-11-12T00:33:40.586Z,71.80
2022-11-12T00:36:08.275Z,72.05
2022-11-12T00:38:34.902Z,71.94
2022-11-12T00:41:01.721Z,72.70
2022-11-12T00:43:28.630Z,72.91
2022-11-12T00:46:29.238Z,73.18
2022-11-12T00:49:05.771Z,72.23
2022-11-12T01:07:30.596Z,75.09
2022-11-12T01:09:57.125Z,74.72
2022-11-12T01:12:23.725Z,74.63
2022-11-12T01:14:50.432Z,75.50
2022-11-12T01:17:16.964Z,74.97
2022-11-12T01:26:18.071Z,75.44
2022-11-12T01:28:44.748Z,75.32
2022-11-12T01:31:19.832Z,75.27
2022-11-12T01:33:49.138Z,76.10
2022-11-12T01:36:17.813Z,75.44
2022-11-12T01:38:45.491Z,74.38
2022-11-12T01:59:57.714Z,74.34
2022-11-12T02:02:24.758Z,74.03
2022-11-12T02:04:51.748Z,73.86
2022-11-12T02:07:22.373Z,73.73
2022-11-12T02:09:49.031Z,73.45
2022-11-12T02:12:35.912Z,73.60
2022-11-12T02:23:02.020Z,72.62
2022-11-12T02:25:28.773Z,71.99
2022-11-12T02:27:56.817Z,71.72
2022-11-12T02:30:48.897Z,70.59
2022-11-12T02:33:49.338Z,70.23
2022-11-12T02:53:23.737Z,70.22
2022-11-12T02:55:50.635Z,70.96
2022-11-12T02:58:17.246Z,71.92
2022-11-12T03:00:43.794Z,72.43
2022-11-12T03:03:10.398Z,72.71
2022-11-12T03:09:01.200Z,73.51
2022-11-12T03:11:27.810Z,73.30
2022-11-12T03:13:54.355Z,73.23
2022-11-12T03:16:20.923Z,72.31
2022-11-12T03:18:47.512Z,71.61
2022-11-12T03:21:14.153Z,71.10
2022-11-12T03:23:58.893Z,70.95
2022-11-12T03:55:45.639Z,69.71
2022-11-12T03:58:14.385Z,70.18
2022-11-12T04:00:41.027Z,70.80
2022-11-12T04:03:09.748Z,70.66
2022-11-12T04:05:54.738Z,71.51
2022-11-12T04:16:43.966Z,72.98
2022-11-12T04:19:31.367Z,72.75
2022-11-12T04:22:09.522Z,71.89
2022-11-12T04:24:59.889Z,71.66
2022-11-12T04:27:31.845Z,71.48
2022-11-12T04:30:18.703Z,71.22
2022-11-12T04:32:50.366Z,70.70
2022-11-12T04:35:18.879Z,70.93
2022-11-12T04:43:40.897Z,71.84
2022-11-12T04:46:07.623Z,71.18
2022-11-12T04:53:57.606Z,73.86
2022-11-12T04:56:24.177Z,75.80
2022-11-12T04:59:53.225Z,75.72
2022-11-12T05:02:44.649Z,75.95
2022-11-12T05:05:11.215Z,75.90
2022-11-12T05:07:37.758Z,78.67
2022-11-12T05:10:04.583Z,79.11
2022-11-12T05:12:31.135Z,80.37
2022-11-12T05:14:58.031Z,81.13
2022-11-12T05:17:24.576Z,81.09
2022-11-12T05:19:51.932Z,80.37
2022-11-12T05:22:42.001Z,79.10
2022-11-12T05:25:06.500Z,79.31
2022-11-12T05:27:33.930Z,78.86
2022-11-12T05:30:00.540Z,78.02
2022-11-12T05:41:07.785Z,77.65
2022-11-12T05:43:34.346Z,77.42
2022-11-12T05:46:00.923Z,76.79
2022-11-12T05:49:14.604Z,77.01
2022-11-12T05:52:01.311Z,75.55
2022-11-12T05:54:27.943Z,75.78
2022-11-12T05:56:55.036Z,76.10
2022-11-12T05:59:22.237Z,75.98
2022-11-12T06:01:48.830Z,75.45
2022-11-12T06:04:16.079Z,75.08
2022-11-12T06:09:17.871Z,76.69
2022-11-12T06:11:44.411Z,76.30
2022-11-12T06:14:10.990Z,77.17
2022-11-12T06:16:37.619Z,77.64
2022-11-12T06:19:04.953Z,77.96
2022-11-12T06:21:31.487Z,77.82
2022-11-12T06:24:35.682Z,77.45
2022-11-12T06:27:27.309Z,78.28
2022-11-12T06:29:53.877Z,76.74
2022-11-12T06:32:20.446Z,76.38
2022-11-12T06:34:46.979Z,77.21
2022-11-12T06:37:13.659Z,77.07
2022-11-12T06:39:40.244Z,76.20
2022-11-12T06:55:15.736Z,76.72
2022-11-12T06:58:33.919Z,77.48
2022-11-12T07:01:21.462Z,77.67
2022-11-12T07:03:51.937Z,79.20
2022-11-12T07:06:20.540Z,78.55
2022-11-12T07:08:49.189Z,79.27
2022-11-12T07:11:16.982Z,79.12
2022-11-12T07:13:47.220Z,80.11
2022-11-12T07:16:18.415Z,78.52
2022-11-12T07:18:46.687Z,78.45
2022-11-12T07:21:16.297Z,77.84
2022-11-12T07:23:42.864Z,77.41
2022-11-12T07:26:24.443Z,77.37
2022-11-12T07:28:52.475Z,77.21
2022-11-12T07:31:20.377Z,76.81
2022-11-12T07:33:50.600Z,77.17
2022-11-12T07:36:19.399Z,77.09
2022-11-12T07:38:46.853Z,76.52
2022-11-12T07:41:14.762Z,76.31
2022-11-12T07:43:43.877Z,76.81
2022-11-12T07:46:16.102Z,76.85
2022-11-12T07:48:44.541Z,77.68
2022-11-12T07:51:14.051Z,78.12
2022-11-12T07:53:41.963Z,78.09
2022-11-12T07:56:11.423Z,77.02
2022-11-12T07:58:38.120Z,78.18
2022-11-12T08:01:19.891Z,77.97
2022-11-12T08:03:46.457Z,78.17
2022-11-12T08:06:13.224Z,78.63
2022-11-12T08:08:39.829Z,76.73
2022-11-12T08:11:06.455Z,76.89
2022-11-12T08:13:33.014Z,78.05
2022-11-12T08:16:00.377Z,79.80
2022-11-12T08:18:27.683Z,78.72
2022-11-12T08:21:02.547Z,77.90
2022-11-12T08:23:29.667Z,76.93
2022-11-12T08:26:03.355Z,76.10
2022-11-12T08:28:31.510Z,75.88
2022-11-12T08:31:03.187Z,74.63
2022-11-12T08:33:30.744Z,75.00
2022-11-12T08:35:57.603Z,76.52
2022-11-12T08:38:24.432Z,76.61
2022-11-12T08:40:51.209Z,76.09
2022-11-12T08:43:17.792Z,75.12
2022-11-12T08:45:44.679Z,75.43
2022-11-12T08:48:14.397Z,75.13
2022-11-12T08:50:42.243Z,76.85
2022-11-12T08:53:11.846Z,74.71
2022-11-12T08:55:39.222Z,75.18
2022-11-12T08:58:06.647Z,76.25
2022-11-12T09:00:37.249Z,76.19
2022-11-12T09:03:06.128Z,76.04
2022-11-12T09:05:35.227Z,76.33
2022-11-12T09:08:08.553Z,75.65
2022-11-12T09:10:36.543Z,76.06
2022-11-12T09:13:03.963Z,74.68
2022-11-12T09:15:37.448Z,75.11
2022-11-12T09:18:08.217Z,75.75
2022-11-12T09:20:34.782Z,76.46
2022-11-12T09:23:04.356Z,76.52
2022-11-12T09:25:31.233Z,74.09
2022-11-12T09:28:08.388Z,73.19
2022-11-12T09:30:36.077Z,73.16
2022-11-12T09:33:02.837Z,74.21
2022-11-12T09:35:29.938Z,72.83
2022-11-12T09:37:58.527Z,71.11
2022-11-12T09:40:45.393Z,70.72
2022-11-12T09:43:20.923Z,69.86
2022-11-12T09:46:00.296Z,68.82
2022-11-12T09:48:40.645Z,68.76
2022-11-12T09:51:11.515Z,69.49
2022-11-12T09:53:56.271Z,70.05
2022-11-12T09:56:24.496Z,70.71
2022-11-12T09:58:52.016Z,69.30
2022-11-12T10:01:22.356Z,68.14
2022-11-12T10:04:03.160Z,67.61
2022-11-12T10:06:45.447Z,67.28
2022-11-12T10:09:23.042Z,66.02
2022-11-12T10:12:19.703Z,65.63
2022-11-12T10:15:23.114Z,67.66
2022-11-12T10:18:21.039Z,67.27
2022-11-12T10:20:56.174Z,66.65
2022-11-12T10:23:33.907Z,67.34
2022-11-12T10:26:09.526Z,67.42
2022-11-12T10:29:02.870Z,66.00
2022-11-12T10:31:29.447Z,65.26
2022-11-12T10:34:13.826Z,67.11
2022-11-12T10:36:45.662Z,67.59
2022-11-12T10:39:38.247Z,65.81
2022-11-12T10:42:13.555Z,64.41
2022-11-12T10:44:42.466Z,64.77
2022-11-12T10:47:38.942Z,64.22
2022-11-12T10:50:16.019Z,63.59
2022-11-12T10:53:11.192Z,65.39
2022-11-12T10:55:55.047Z,66.07
2022-11-12T10:58:21.620Z,64.92
2022-11-12T11:01:05.182Z,64.82
2022-11-12T11:03:37.348Z,64.50
2022-11-12T11:06:21.644Z,64.59
2022-11-12T11:08:53.133Z,64.72
2022-11-12T11:11:32.029Z,65.55
2022-11-12T11:14:26.427Z,62.51
2022-11-12T11:19:42.840Z,63.76
2022-11-12T11:22:15.275Z,64.64
2022-11-12T11:24:50.684Z,62.48
2022-11-12T11:27:47.398Z,62.48
2022-11-12T11:30:19.014Z,61.79
2022-11-12T11:41:17.023Z,61.36
2022-11-12T11:43:49.908Z,62.55
2022-11-12T11:46:16.371Z,61.31
2022-11-12T11:49:01.744Z,59.73
2022-11-12T11:51:43.629Z,60.24
2022-11-12T11:54:36.025Z,60.36
2022-11-12T11:57:13.098Z,61.29
2022-11-12T11:59:54.552Z,60.78
2022-11-12T12:02:21.013Z,62.43
2022-11-12T12:04:51.304Z,60.12
2022-11-12T12:07:26.591Z,61.40
2022-11-12T12:10:09.206Z,59.26
2022-11-12T12:13:08.620Z,59.83
2022-11-12T12:15:58.172Z,59.20
2022-11-12T12:18:39.923Z,58.92
2022-11-12T12:21:18.806Z,59.76
2022-11-12T12:23:54.835Z,58.97
2022-11-12T12:26:30.775Z,59.06
2022-11-12T12:29:21.801Z,59.25
2022-11-12T12:31:53.434Z,57.54
2022-11-12T12:34:33.760Z,57.08
2022-11-12T12:37:07.583Z,57.06
2022-11-12T12:39:47.738Z,56.85
2022-11-12T12:42:29.861Z,56.17
2022-11-12T12:45:03.268Z,56.70
2022-11-12T12:47:36.857Z,56.25
2022-11-12T12:50:07.596Z,55.44
2022-11-12T12:53:03.762Z,55.45
2022-11-12T12:55:41.870Z,55.65
2022-11-12T12:58:31.483Z,55.63
2022-11-12T13:01:19.127Z,55.22
2022-11-12T13:03:53.828Z,54.97
2022-11-12T13:06:23.266Z,55.44
2022-11-12T13:09:18.116Z,55.46
2022-11-12T13:12:03.205Z,54.17
2022-11-12T13:14:35.485Z,54.48
2022-11-12T13:17:05.115Z,53.86
2022-11-12T13:19:37.948Z,53.85
2022-11-12T13:22:33.282Z,53.56
2022-11-12T13:25:02.686Z,53.44
2022-11-12T13:27:44.409Z,55.98
2022-11-12T13:30:30.855Z,54.55
2022-11-12T13:32:59.051Z,54.83
2022-11-12T13:35:25.665Z,55.20
2022-11-12T13:38:12.990Z,53.72
2022-11-12T13:40:44.561Z,54.75
2022-11-12T13:43:27.794Z,56.79
2022-11-12T13:45:59.926Z,55.24
2022-11-12T13:48:59.723Z,56.75
2022-11-12T13:51:41.087Z,56.83
2022-11-12T13:54:34.688Z,58.10
2022-11-12T13:57:24.023Z,57.55
2022-11-12T14:00:22.115Z,57.75
2022-11-12T14:03:05.293Z,57.74
2022-11-12T14:05:32.923Z,57.25
2022-11-12T14:08:25.738Z,58.32
2022-11-12T14:11:22.070Z,58.72
2022-11-12T14:14:06.479Z,58.44
2022-11-12T14:16:44.650Z,58.95
2022-11-12T14:19:45.266Z,59.47
2022-11-12T14:22:22.203Z,61.17
2022-11-12T14:25:00.420Z,61.14
2022-11-12T14:27:30.428Z,60.21
2022-11-12T14:30:35.304Z,59.84
2022-11-12T14:33:10.102Z,61.28
2022-11-12T14:35:37.795Z,60.91
2022-11-12T14:38:30.339Z,60.00
2022-11-12T14:41:01.945Z,59.39
2022-11-12T14:43:54.980Z,60.15
2022-11-12T14:46:29.130Z,61.05
2022-11-12T14:49:07.419Z,62.80
2022-11-12T14:51:47.220Z,63.23
2022-11-12T14:54:27.765Z,62.14
2022-11-12T14:56:54.886Z,63.06
2022-11-12T14:59:21.907Z,61.94
2022-11-12T15:02:31.397Z,62.34
2022-11-12T15:05:01.200Z,61.93
2022-11-12T15:07:33.994Z,61.34
2022-11-12T15:10:01.698Z,60.86
2022-11-12T15:12:31.572Z,61.34
2022-11-12T15:15:18.837Z,61.30
2022-11-12T15:17:45.471Z,61.25
2022-11-12T15:20:21.217Z,61.14
2022-11-12T15:22:53.164Z,61.18
2022-11-12T15:25:26.480Z,61.42
2022-11-12T15:27:56.420Z,61.56
2022-11-12T15:30:28.747Z,61.68
2022-11-12T15:33:13.721Z,62.08
2022-11-12T15:35:47.264Z,62.28
2022-11-12T15:38:23.227Z,62.60
2022-11-12T15:40:57.575Z,62.86
2022-11-12T15:43:28.512Z,63.03
2022-11-12T15:45:56.429Z,63.55
2022-11-12T15:48:23.211Z,64.21
2022-11-12T15:50:49.904Z,64.69
2022-11-12T15:53:16.663Z,64.94
2022-11-12T15:55:44.058Z,64.60
2022-11-12T15:58:17.440Z,64.85
2022-11-12T16:00:44.326Z,65.29
2022-11-12T16:03:14.878Z,65.45
2022-11-12T16:05:42.099Z,65.56
2022-11-12T16:08:08.779Z,65.18
2022-11-12T16:10:36.636Z,65.27
2022-11-12T16:13:05.273Z,65.25
2022-11-12T16:15:32.226Z,65.18
2022-11-12T16:18:01.806Z,65.52
2022-11-12T16:20:32.070Z,65.84
2022-11-12T16:22:58.703Z,65.87
2022-11-12T16:25:30.324Z,65.75
2022-11-12T16:27:58.075Z,65.57
2022-11-12T16:30:33.958Z,65.47
2022-11-12T16:33:01.798Z,65.35
2022-11-12T16:35:31.422Z,65.25
2022-11-12T16:37:57.943Z,65.77
2022-11-12T16:40:27.357Z,65.77
2022-11-12T16:42:54.000Z,65.49
2022-11-12T16:45:22.857Z,65.39
2022-11-12T16:47:54.659Z,65.25
2022-11-12T16:50:24.658Z,65.45
2022-11-12T16:52:51.439Z,65.38
2022-11-12T16:55:18.089Z,65.42
2022-11-12T16:57:45.200Z,65.97
2022-11-12T17:00:17.681Z,66.28
2022-11-12T17:02:49.382Z,66.08
2022-11-12T17:05:21.281Z,66.37
2022-11-12T17:07:48.914Z,66.19
2022-11-12T17:10:16.914Z,66.08
2022-11-12T17:12:43.570Z,65.98
2022-11-12T17:15:10.368Z,66.43
2022-11-12T17:17:55.340Z,66.66
2022-11-12T17:20:22.080Z,67.31
2022-11-12T17:22:48.673Z,67.15
2022-11-12T17:25:15.358Z,67.73
2022-11-12T17:27:42.271Z,68.12
2022-11-12T17:30:10.071Z,68.19
2022-11-12T17:32:36.648Z,67.67
2022-11-12T17:35:03.245Z,68.60
2022-11-12T17:37:29.767Z,68.14
2022-11-12T17:39:56.358Z,67.94
2022-11-12T17:42:22.964Z,67.42
2022-11-12T17:44:49.523Z,67.33
2022-11-12T17:47:16.035Z,67.23
2022-11-12T17:49:42.694Z,67.90
2022-11-12T17:52:09.239Z,68.38
2022-11-12T17:54:36.592Z,69.11
2022-11-12T17:57:03.164Z,68.60
2022-11-12T17:59:29.779Z,68.27
2022-11-12T18:01:56.363Z,69.50
2022-11-12T18:04:23.923Z,69.29
2022-11-12T18:06:50.789Z,69.73
2022-11-12T18:09:17.514Z,69.40
2022-11-12T18:11:50.023Z,69.41
2022-11-12T18:14:16.924Z,69.15
2022-11-12T18:16:43.564Z,68.94
2022-11-12T18:19:11.165Z,69.50
2022-11-12T18:21:40.014Z,70.14
2022-11-12T18:24:07.831Z,70.32
2022-11-12T18:26:34.998Z,70.14
2022-11-12T18:29:01.605Z,70.76
2022-11-12T18:31:28.716Z,70.60
2022-11-12T18:33:56.009Z,70.75
2022-11-12T18:36:25.528Z,70.31
2022-11-12T18:38:55.485Z,70.01
2022-11-12T18:41:26.017Z,70.07
2022-11-12T18:43:53.983Z,70.02
2022-11-12T18:46:20.571Z,69.80
2022-11-12T18:48:47.572Z,70.00
2022-11-12T18:51:16.510Z,69.75
2022-11-12T18:53:43.623Z,69.57
2022-11-12T18:56:16.080Z,69.54
2022-11-12T18:58:43.146Z,69.53
2022-11-12T19:01:24.022Z,69.69
2022-11-12T19:03:55.927Z,70.08
2022-11-12T19:06:23.623Z,69.74
2022-11-12T19:08:50.819Z,69.79
2022-11-12T19:11:19.100Z,69.49
2022-11-12T19:13:45.701Z,69.52
2022-11-12T19:16:16.925Z,69.76
2022-11-12T19:18:44.231Z,69.72
2022-11-12T19:21:15.962Z,69.61
2022-11-12T19:23:43.092Z,70.13
2022-11-12T19:26:13.551Z,70.08
2022-11-12T19:28:40.718Z,69.84
2022-11-12T19:31:12.744Z,69.62
2022-11-12T19:33:39.497Z,70.07
2022-11-12T19:36:08.763Z,70.39
2022-11-12T19:38:35.335Z,70.74
2022-11-12T19:41:13.394Z,71.35
2022-11-12T19:43:42.969Z,72.37
2022-11-12T19:46:11.304Z,72.27
2022-11-12T19:48:38.744Z,71.52
2022-11-12T19:51:07.321Z,71.07
2022-11-12T19:53:40.948Z,70.49
2022-11-12T19:56:08.091Z,70.33
2022-11-12T19:58:35.106Z,70.28
2022-11-12T20:01:06.613Z,70.72
2022-11-12T20:03:33.871Z,71.23
2022-11-12T20:06:05.616Z,71.56
2022-11-12T20:08:33.080Z,72.77
2022-11-12T20:11:00.179Z,71.85
2022-11-12T20:13:27.467Z,71.73
2022-11-12T20:15:54.288Z,71.67
2022-11-12T20:18:21.208Z,72.36
2022-11-12T20:20:51.352Z,72.77
2022-11-12T20:23:18.023Z,72.62
2022-11-12T20:25:44.655Z,71.87
2022-11-12T20:28:11.963Z,71.75
2022-11-12T20:30:39.225Z,71.93
2022-11-12T20:33:05.784Z,72.31
2022-11-12T20:35:36.377Z,72.60
2022-11-12T20:38:04.551Z,72.23
2022-11-12T20:40:32.230Z,72.30
2022-11-12T20:42:59.033Z,72.83
2022-11-12T20:45:27.137Z,72.32
2022-11-12T20:47:56.377Z,72.37
2022-11-12T20:50:23.642Z,72.05
2022-11-12T20:52:50.301Z,71.70
2022-11-12T20:55:17.074Z,71.49
2022-11-12T20:57:44.017Z,71.57
2022-11-12T21:00:14.086Z,71.40
2022-11-12T21:02:41.684Z,71.77
2022-11-12T21:05:08.595Z,71.52
2022-11-12T21:08:25.559Z,72.80
2022-11-12T21:11:15.628Z,74.00
2022-11-12T21:13:42.694Z,72.30
2022-11-12T21:16:10.897Z,73.14
2022-11-12T21:18:38.297Z,73.48
2022-11-12T21:21:11.403Z,73.19
2022-11-12T21:23:40.974Z,72.52
2022-11-12T21:28:48.354Z,73.46
2022-11-12T21:31:23.484Z,74.26
2022-11-12T21:34:03.171Z,73.89
2022-11-12T21:36:31.824Z,74.01
2022-11-12T21:39:02.548Z,74.58
2022-11-12T21:42:25.964Z,74.63
2022-11-12T21:45:35.223Z,76.27
2022-11-12T21:48:01.757Z,75.23
2022-11-12T21:50:28.531Z,75.31
2022-11-12T21:52:56.371Z,74.97
2022-11-12T21:55:22.959Z,74.22
2022-11-12T21:57:49.494Z,73.82
2022-11-12T22:00:40.817Z,74.44
2022-11-12T22:03:03.321Z,76.46
2022-11-12T22:05:29.911Z,76.42
2022-11-12T22:07:56.500Z,77.80
2022-11-12T22:10:23.046Z,77.58
2022-11-12T22:13:19.753Z,76.14
2022-11-12T22:18:11.353Z,76.03
2022-11-12T22:20:37.872Z,75.87
2022-11-12T22:23:07.181Z,75.49
2022-11-12T22:25:33.709Z,74.95
2022-11-12T22:28:00.273Z,76.26
2022-11-12T22:30:45.625Z,76.57
2022-11-12T22:37:17.504Z,77.62
2022-11-12T22:39:44.036Z,76.25
2022-11-12T22:42:10.629Z,76.80
2022-11-12T22:44:37.166Z,76.80
2022-11-12T22:47:03.744Z,77.27
2022-11-12T22:49:30.267Z,77.32
2022-11-12T22:51:56.882Z,77.15
2022-11-12T23:00:01.003Z,76.73
2022-11-12T23:02:27.928Z,76.63
2022-11-12T23:04:54.496Z,77.07
2022-11-12T23:07:51.948Z,77.37
2022-11-12T23:10:44.456Z,76.60
2022-11-12T23:13:12.225Z,78.81
2022-11-12T23:15:42.722Z,77.05
2022-11-12T23:18:09.389Z,77.75
2022-11-12T23:20:35.920Z,77.35
2022-11-12T23:23:03.251Z,77.64
2022-11-12T23:25:45.342Z,78.18
2022-11-12T23:31:14.447Z,77.69
2022-11-12T23:33:45.654Z,77.93
2022-11-12T23:36:12.690Z,78.00
2022-11-12T23:41:17.028Z,76.27
2022-11-12T23:43:44.506Z,76.42
2022-11-12T23:46:29.534Z,77.04
2022-11-12T23:49:26.937Z,77.75
2022-11-12T23:52:08.878Z,76.65
2022-11-12T23:54:35.530Z,78.53
2022-11-12T23:57:02.095Z,78.69
2022-11-12T23:59:28.630Z,78.87
